CTV959 WIEE-WIII
Flight info
| Callsign | CTV959 |
|---|---|
| Flight time | 1h 20m |
| Altitude | 39000 |
| Route | BEPNO T7 TOPUK T5 BUNIK |
| Aircraft | A20N/M-SDE2E3FGHIRWXY/LB1 |
Departure
| Time | 2026-05-06 09:09 |
|---|---|
| Airport | Minangkabau International Airport (WIEE) |
Arrival
| Time | 2026-05-06 10:30 |
|---|---|
| Airport | Soekarno-Hatta International Airport (WIII) |
| Time | Latitude | Longitude | Altitude | Speed | Heading |
|---|---|---|---|---|---|
| 2026-05-06 08:50 | -0.78553 | 100.28461 | 57 ft | 0 kts | 63° |
| 2026-05-06 09:00 | -0.78555 | 100.28458 | 56 ft | 2 kts | 63° |
| 2026-05-06 09:00 | -0.78562 | 100.28445 | 56 ft | 2 kts | 63° |
| 2026-05-06 09:01 | -0.78569 | 100.28431 | 56 ft | 2 kts | 63° |
| 2026-05-06 09:01 | -0.78576 | 100.28418 | 56 ft | 2 kts | 63° |
| 2026-05-06 09:01 | -0.78582 | 100.28404 | 56 ft | 2 kts | 86° |
| 2026-05-06 09:01 | -0.78579 | 100.28390 | 56 ft | 1 kts | 121° |
| 2026-05-06 09:02 | -0.78575 | 100.28384 | 56 ft | 1 kts | 135° |
| 2026-05-06 09:02 | -0.78573 | 100.28381 | 56 ft | 0 kts | 130° |
| 2026-05-06 09:03 | -0.78575 | 100.28384 | 56 ft | 0 kts | 131° |
| 2026-05-06 09:04 | -0.78579 | 100.28387 | 56 ft | 0 kts | 145° |
| 2026-05-06 09:04 | -0.78587 | 100.28391 | 56 ft | 1 kts | 152° |
| 2026-05-06 09:04 | -0.78606 | 100.28401 | 55 ft | 4 kts | 155° |
| 2026-05-06 09:04 | -0.78644 | 100.28418 | 55 ft | 7 kts | 155° |
| 2026-05-06 09:05 | -0.78701 | 100.28443 | 54 ft | 9 kts | 156° |
| 2026-05-06 09:05 | -0.78769 | 100.28475 | 53 ft | 11 kts | 153° |
| 2026-05-06 09:05 | -0.78848 | 100.28503 | 53 ft | 12 kts | 187° |
| 2026-05-06 09:05 | -0.78910 | 100.28434 | 51 ft | 14 kts | 245° |
| 2026-05-06 09:06 | -0.78954 | 100.28340 | 50 ft | 15 kts | 245° |
| 2026-05-06 09:06 | -0.79017 | 100.28254 | 49 ft | 16 kts | 193° |
| 2026-05-06 09:06 | -0.79124 | 100.28286 | 49 ft | 16 kts | 155° |
| 2026-05-06 09:06 | -0.79230 | 100.28334 | 48 ft | 17 kts | 156° |
| 2026-05-06 09:07 | -0.79344 | 100.28386 | 47 ft | 18 kts | 155° |
| 2026-05-06 09:07 | -0.79462 | 100.28441 | 47 ft | 18 kts | 155° |
| 2026-05-06 09:07 | -0.79581 | 100.28497 | 46 ft | 19 kts | 154° |
| 2026-05-06 09:07 | -0.79704 | 100.28559 | 45 ft | 20 kts | 139° |
| 2026-05-06 09:08 | -0.79785 | 100.28645 | 45 ft | 11 kts | 179° |
| 2026-05-06 09:08 | -0.79803 | 100.28597 | 45 ft | 8 kts | 325° |
| 2026-05-06 09:08 | -0.79750 | 100.28574 | 45 ft | 8 kts | 335° |
| 2026-05-06 09:08 | -0.79691 | 100.28547 | 45 ft | 10 kts | 335° |
| 2026-05-06 09:09 | -0.79415 | 100.28419 | 47 ft | 79 kts | 335° |
| 2026-05-06 09:09 | -0.78722 | 100.28098 | 54 ft | 139 kts | 334° |
| 2026-05-06 09:09 | -0.77700 | 100.27627 | 238 ft | 171 kts | 334° |
| 2026-05-06 09:09 | -0.76601 | 100.27113 | 740 ft | 176 kts | 334° |
| 2026-05-06 09:10 | -0.75523 | 100.26604 | 1456 ft | 172 kts | 334° |
| 2026-05-06 09:10 | -0.74450 | 100.26096 | 2057 ft | 177 kts | 334° |
| 2026-05-06 09:10 | -0.73289 | 100.25546 | 2457 ft | 191 kts | 335° |
| 2026-05-06 09:10 | -0.72026 | 100.24950 | 2800 ft | 208 kts | 333° |
| 2026-05-06 09:11 | -0.70851 | 100.23988 | 3011 ft | 233 kts | 299° |
| 2026-05-06 09:11 | -0.70442 | 100.22408 | 3473 ft | 249 kts | 268° |
| 2026-05-06 09:11 | -0.70973 | 100.20715 | 3894 ft | 268 kts | 234° |
| 2026-05-06 09:11 | -0.72445 | 100.19546 | 4540 ft | 278 kts | 199° |
| 2026-05-06 09:12 | -0.74343 | 100.19400 | 5352 ft | 280 kts | 166° |
| 2026-05-06 09:12 | -0.76023 | 100.20320 | 6175 ft | 281 kts | 133° |
| 2026-05-06 09:12 | -0.77006 | 100.21995 | 6939 ft | 284 kts | 109° |
| 2026-05-06 09:12 | -0.77566 | 100.23889 | 7713 ft | 288 kts | 104° |
| 2026-05-06 09:13 | -0.78102 | 100.25796 | 8486 ft | 291 kts | 106° |
| 2026-05-06 09:13 | -0.78744 | 100.27720 | 9276 ft | 294 kts | 111° |
| 2026-05-06 09:13 | -0.79568 | 100.29572 | 10061 ft | 296 kts | 115° |
| 2026-05-06 09:13 | -0.80472 | 100.31434 | 10712 ft | 303 kts | 115° |
| 2026-05-06 09:14 | -0.81431 | 100.33382 | 11076 ft | 320 kts | 115° |
| 2026-05-06 09:14 | -0.82444 | 100.35435 | 11389 ft | 338 kts | 115° |
| 2026-05-06 09:14 | -0.83503 | 100.37584 | 11717 ft | 354 kts | 115° |
| 2026-05-06 09:14 | -0.84593 | 100.39790 | 12284 ft | 360 kts | 115° |
| 2026-05-06 09:15 | -0.85699 | 100.42025 | 12976 ft | 362 kts | 115° |
| 2026-05-06 09:15 | -0.86814 | 100.44280 | 13638 ft | 364 kts | 115° |
| 2026-05-06 09:15 | -0.87936 | 100.46550 | 14259 ft | 367 kts | 115° |
| 2026-05-06 09:15 | -0.89070 | 100.48844 | 14870 ft | 370 kts | 115° |
| 2026-05-06 09:16 | -0.90209 | 100.51151 | 15479 ft | 372 kts | 115° |
| 2026-05-06 09:16 | -0.91357 | 100.53475 | 16038 ft | 375 kts | 115° |
| 2026-05-06 09:16 | -0.92524 | 100.55838 | 16595 ft | 378 kts | 115° |
| 2026-05-06 09:16 | -0.93681 | 100.58179 | 17127 ft | 380 kts | 114° |
| 2026-05-06 09:17 | -0.94847 | 100.60543 | 17637 ft | 383 kts | 114° |
| 2026-05-06 09:17 | -0.96028 | 100.62934 | 18146 ft | 386 kts | 114° |
| 2026-05-06 09:17 | -0.97220 | 100.65352 | 18648 ft | 389 kts | 114° |
| 2026-05-06 09:17 | -0.98424 | 100.67793 | 19133 ft | 392 kts | 114° |
| 2026-05-06 09:18 | -0.99617 | 100.70210 | 19603 ft | 394 kts | 114° |
| 2026-05-06 09:18 | -1.00844 | 100.72695 | 20074 ft | 397 kts | 115° |
| 2026-05-06 09:18 | -1.02064 | 100.75166 | 20535 ft | 399 kts | 114° |
| 2026-05-06 09:18 | -1.03296 | 100.77663 | 20973 ft | 402 kts | 114° |
| 2026-05-06 09:19 | -1.04537 | 100.80177 | 21400 ft | 405 kts | 114° |
| 2026-05-06 09:19 | -1.05777 | 100.82693 | 21812 ft | 407 kts | 114° |
| 2026-05-06 09:19 | -1.07023 | 100.85219 | 22221 ft | 410 kts | 114° |
| 2026-05-06 09:19 | -1.08298 | 100.87803 | 22635 ft | 413 kts | 114° |
| 2026-05-06 09:20 | -1.09567 | 100.90378 | 23043 ft | 415 kts | 115° |
| 2026-05-06 09:20 | -1.10843 | 100.92964 | 23446 ft | 418 kts | 115° |
| 2026-05-06 09:20 | -1.12133 | 100.95580 | 23840 ft | 421 kts | 115° |
| 2026-05-06 09:20 | -1.13432 | 100.98212 | 24245 ft | 423 kts | 115° |
| 2026-05-06 09:21 | -1.14724 | 101.00833 | 24617 ft | 426 kts | 115° |
| 2026-05-06 09:21 | -1.16032 | 101.03484 | 24970 ft | 428 kts | 115° |
| 2026-05-06 09:21 | -1.17365 | 101.06187 | 25344 ft | 431 kts | 115° |
| 2026-05-06 09:21 | -1.18828 | 101.08785 | 25688 ft | 434 kts | 121° |
| 2026-05-06 09:22 | -1.20507 | 101.11295 | 26039 ft | 436 kts | 123° |
| 2026-05-06 09:22 | -1.22243 | 101.13807 | 26384 ft | 438 kts | 123° |
| 2026-05-06 09:22 | -1.23975 | 101.16321 | 26695 ft | 441 kts | 123° |
| 2026-05-06 09:22 | -1.25685 | 101.18828 | 26995 ft | 443 kts | 123° |
| 2026-05-06 09:23 | -1.27518 | 101.21325 | 27289 ft | 446 kts | 129° |
| 2026-05-06 09:23 | -1.29629 | 101.23626 | 27592 ft | 448 kts | 133° |
| 2026-05-06 09:23 | -1.31804 | 101.25855 | 27884 ft | 450 kts | 133° |
| 2026-05-06 09:23 | -1.34009 | 101.28112 | 28172 ft | 452 kts | 133° |
| 2026-05-06 09:24 | -1.36200 | 101.30377 | 28450 ft | 454 kts | 133° |
| 2026-05-06 09:24 | -1.38378 | 101.32650 | 28741 ft | 456 kts | 133° |
| 2026-05-06 09:24 | -1.40547 | 101.34930 | 29026 ft | 457 kts | 133° |
| 2026-05-06 09:24 | -1.42757 | 101.37264 | 29307 ft | 458 kts | 133° |
| 2026-05-06 09:25 | -1.44957 | 101.39595 | 29567 ft | 460 kts | 133° |
| 2026-05-06 09:25 | -1.47148 | 101.41921 | 29802 ft | 462 kts | 133° |
| 2026-05-06 09:25 | -1.49351 | 101.44260 | 30101 ft | 462 kts | 133° |
| 2026-05-06 09:25 | -1.51538 | 101.46584 | 30489 ft | 460 kts | 133° |
| 2026-05-06 09:26 | -1.53742 | 101.48927 | 30867 ft | 458 kts | 133° |
| 2026-05-06 09:26 | -1.55912 | 101.51234 | 31208 ft | 458 kts | 133° |
| 2026-05-06 09:26 | -1.58097 | 101.53558 | 31551 ft | 457 kts | 133° |
| 2026-05-06 09:26 | -1.60282 | 101.55881 | 31888 ft | 456 kts | 133° |
| 2026-05-06 09:27 | -1.62438 | 101.58175 | 32199 ft | 455 kts | 133° |
| 2026-05-06 09:27 | -1.64623 | 101.60500 | 32497 ft | 455 kts | 133° |
| 2026-05-06 09:27 | -1.66782 | 101.62796 | 32835 ft | 454 kts | 133° |
| 2026-05-06 09:27 | -1.68931 | 101.65081 | 33186 ft | 453 kts | 133° |
| 2026-05-06 09:28 | -1.71077 | 101.67364 | 33543 ft | 452 kts | 133° |
| 2026-05-06 09:28 | -1.73253 | 101.69679 | 33898 ft | 452 kts | 133° |
| 2026-05-06 09:28 | -1.75381 | 101.71943 | 34225 ft | 451 kts | 133° |
| 2026-05-06 09:28 | -1.77523 | 101.74221 | 34554 ft | 450 kts | 133° |
| 2026-05-06 09:29 | -1.79690 | 101.76525 | 34889 ft | 450 kts | 133° |
| 2026-05-06 09:29 | -1.81822 | 101.78794 | 35205 ft | 449 kts | 133° |
| 2026-05-06 09:29 | -1.83960 | 101.81068 | 35498 ft | 448 kts | 133° |
| 2026-05-06 09:29 | -1.86085 | 101.83328 | 35766 ft | 448 kts | 132° |
| 2026-05-06 09:30 | -1.88225 | 101.85605 | 36001 ft | 448 kts | 132° |
| 2026-05-06 09:30 | -1.90365 | 101.87882 | 36224 ft | 448 kts | 132° |
| 2026-05-06 09:30 | -1.92483 | 101.90138 | 36454 ft | 448 kts | 132° |
| 2026-05-06 09:30 | -1.94619 | 101.92413 | 36685 ft | 448 kts | 132° |
| 2026-05-06 09:31 | -1.96748 | 101.94679 | 36907 ft | 448 kts | 132° |
| 2026-05-06 09:31 | -1.98884 | 101.96952 | 37116 ft | 447 kts | 132° |
| 2026-05-06 09:31 | -2.01020 | 101.99227 | 37274 ft | 448 kts | 132° |
| 2026-05-06 09:31 | -2.03156 | 102.01501 | 37402 ft | 449 kts | 132° |
| 2026-05-06 09:32 | -2.05314 | 102.03797 | 37528 ft | 450 kts | 132° |
| 2026-05-06 09:32 | -2.07464 | 102.06085 | 37666 ft | 451 kts | 132° |
| 2026-05-06 09:32 | -2.09612 | 102.08369 | 37798 ft | 451 kts | 132° |
| 2026-05-06 09:32 | -2.11742 | 102.10637 | 37925 ft | 452 kts | 132° |
| 2026-05-06 09:33 | -2.13916 | 102.12951 | 38030 ft | 453 kts | 132° |
| 2026-05-06 09:33 | -2.18228 | 102.17542 | 38218 ft | 455 kts | 132° |
| 2026-05-06 09:34 | -2.22550 | 102.22147 | 38380 ft | 456 kts | 132° |
| 2026-05-06 09:34 | -2.24725 | 102.24464 | 38481 ft | 457 kts | 132° |
| 2026-05-06 09:34 | -2.26905 | 102.26785 | 38584 ft | 457 kts | 132° |
| 2026-05-06 09:34 | -2.29087 | 102.29108 | 38693 ft | 458 kts | 132° |
| 2026-05-06 09:35 | -2.31259 | 102.31421 | 38781 ft | 458 kts | 132° |
| 2026-05-06 09:35 | -2.35645 | 102.36093 | 38805 ft | 459 kts | 132° |
| 2026-05-06 09:36 | -2.40004 | 102.40735 | 38800 ft | 459 kts | 131° |
| 2026-05-06 09:36 | -2.44377 | 102.45393 | 38798 ft | 460 kts | 131° |
| 2026-05-06 09:37 | -2.48770 | 102.50074 | 38793 ft | 460 kts | 131° |
| 2026-05-06 09:37 | -2.53156 | 102.54749 | 38789 ft | 461 kts | 131° |
| 2026-05-06 09:38 | -2.57544 | 102.59427 | 38787 ft | 461 kts | 131° |
| 2026-05-06 09:38 | -2.61911 | 102.64080 | 38791 ft | 461 kts | 131° |
| 2026-05-06 09:39 | -2.66329 | 102.68788 | 38788 ft | 461 kts | 131° |
| 2026-05-06 09:39 | -2.70731 | 102.73482 | 38781 ft | 461 kts | 131° |
| 2026-05-06 09:40 | -2.75149 | 102.78191 | 38777 ft | 462 kts | 131° |
| 2026-05-06 09:40 | -2.81737 | 102.85216 | 38770 ft | 463 kts | 131° |
| 2026-05-06 09:41 | -2.86152 | 102.89925 | 38766 ft | 462 kts | 131° |
| 2026-05-06 09:41 | -2.90544 | 102.94609 | 38765 ft | 463 kts | 131° |
| 2026-05-06 09:42 | -2.94956 | 102.99313 | 38766 ft | 463 kts | 131° |
| 2026-05-06 09:42 | -2.99374 | 103.04028 | 38766 ft | 463 kts | 131° |
| 2026-05-06 09:43 | -3.03795 | 103.08746 | 38760 ft | 463 kts | 131° |
| 2026-05-06 09:43 | -3.08196 | 103.13443 | 38772 ft | 462 kts | 131° |
| 2026-05-06 09:44 | -3.12604 | 103.18149 | 38776 ft | 462 kts | 131° |
| 2026-05-06 09:44 | -3.16989 | 103.22829 | 38773 ft | 462 kts | 131° |
| 2026-05-06 09:45 | -3.21418 | 103.27556 | 38791 ft | 462 kts | 131° |
| 2026-05-06 09:45 | -3.25793 | 103.32227 | 38786 ft | 462 kts | 131° |
| 2026-05-06 09:46 | -3.30180 | 103.36912 | 38785 ft | 461 kts | 131° |
| 2026-05-06 09:46 | -3.34564 | 103.41596 | 38795 ft | 461 kts | 131° |
| 2026-05-06 09:47 | -3.38953 | 103.46284 | 38798 ft | 461 kts | 131° |
| 2026-05-06 09:47 | -3.43354 | 103.50984 | 38790 ft | 461 kts | 131° |
| 2026-05-06 09:48 | -3.47736 | 103.55667 | 38799 ft | 460 kts | 131° |
| 2026-05-06 09:48 | -3.52101 | 103.60333 | 38796 ft | 460 kts | 131° |
| 2026-05-06 09:49 | -3.56474 | 103.65006 | 38798 ft | 460 kts | 131° |
| 2026-05-06 09:49 | -3.60850 | 103.69684 | 38797 ft | 460 kts | 131° |
| 2026-05-06 09:50 | -3.65228 | 103.74365 | 38795 ft | 460 kts | 131° |
| 2026-05-06 09:50 | -3.69600 | 103.79040 | 38797 ft | 460 kts | 131° |
| 2026-05-06 09:51 | -3.73981 | 103.83725 | 38795 ft | 460 kts | 132° |
| 2026-05-06 09:51 | -3.78355 | 103.88405 | 38791 ft | 460 kts | 132° |
| 2026-05-06 09:52 | -3.82728 | 103.93083 | 38787 ft | 460 kts | 132° |
| 2026-05-06 09:52 | -3.87091 | 103.97749 | 38786 ft | 461 kts | 132° |
| 2026-05-06 09:53 | -3.91491 | 104.02457 | 38780 ft | 461 kts | 132° |
| 2026-05-06 09:53 | -3.95846 | 104.07119 | 38782 ft | 461 kts | 132° |
| 2026-05-06 09:54 | -4.00242 | 104.11826 | 38779 ft | 461 kts | 132° |
| 2026-05-06 09:54 | -4.04625 | 104.16518 | 38780 ft | 461 kts | 132° |
| 2026-05-06 09:55 | -4.08983 | 104.21187 | 38787 ft | 461 kts | 132° |
| 2026-05-06 09:55 | -4.13393 | 104.25907 | 38784 ft | 461 kts | 132° |
| 2026-05-06 09:56 | -4.17767 | 104.30593 | 38788 ft | 461 kts | 132° |
| 2026-05-06 09:56 | -4.22143 | 104.35281 | 38793 ft | 461 kts | 132° |
| 2026-05-06 09:57 | -4.26534 | 104.39986 | 38794 ft | 462 kts | 132° |
| 2026-05-06 09:57 | -4.30924 | 104.44692 | 38796 ft | 462 kts | 132° |
| 2026-05-06 09:58 | -4.35303 | 104.49387 | 38800 ft | 461 kts | 132° |
| 2026-05-06 09:58 | -4.39676 | 104.54076 | 38800 ft | 461 kts | 132° |
| 2026-05-06 09:59 | -4.44060 | 104.58778 | 38802 ft | 461 kts | 132° |
| 2026-05-06 09:59 | -4.48440 | 104.63476 | 38806 ft | 462 kts | 132° |
| 2026-05-06 10:00 | -4.52827 | 104.68181 | 38807 ft | 462 kts | 132° |
| 2026-05-06 10:00 | -4.57217 | 104.72890 | 38805 ft | 462 kts | 132° |
| 2026-05-06 10:01 | -4.61600 | 104.77595 | 38805 ft | 462 kts | 132° |
| 2026-05-06 10:01 | -4.65978 | 104.82295 | 38802 ft | 462 kts | 132° |
| 2026-05-06 10:02 | -4.70357 | 104.86996 | 38805 ft | 462 kts | 132° |
| 2026-05-06 10:02 | -4.74741 | 104.91704 | 38800 ft | 462 kts | 132° |
| 2026-05-06 10:03 | -4.79126 | 104.96414 | 38794 ft | 462 kts | 132° |
| 2026-05-06 10:03 | -4.83504 | 105.01117 | 38790 ft | 462 kts | 132° |
| 2026-05-06 10:04 | -4.87868 | 105.05803 | 38789 ft | 461 kts | 132° |
| 2026-05-06 10:04 | -4.92233 | 105.10494 | 38421 ft | 455 kts | 131° |
| 2026-05-06 10:05 | -4.94377 | 105.12799 | 37680 ft | 455 kts | 131° |
| 2026-05-06 10:05 | -4.96549 | 105.15134 | 36657 ft | 459 kts | 131° |
| 2026-05-06 10:05 | -4.98736 | 105.17487 | 35610 ft | 463 kts | 132° |
| 2026-05-06 10:05 | -5.00940 | 105.19859 | 34617 ft | 464 kts | 132° |
| 2026-05-06 10:06 | -5.03113 | 105.22195 | 33624 ft | 466 kts | 132° |
| 2026-05-06 10:06 | -5.05335 | 105.24586 | 32782 ft | 464 kts | 132° |
| 2026-05-06 10:06 | -5.07508 | 105.26923 | 32091 ft | 461 kts | 132° |
| 2026-05-06 10:06 | -5.09713 | 105.29293 | 31340 ft | 460 kts | 132° |
| 2026-05-06 10:07 | -5.11905 | 105.31652 | 30474 ft | 462 kts | 132° |
| 2026-05-06 10:07 | -5.14085 | 105.33997 | 29572 ft | 464 kts | 132° |
| 2026-05-06 10:07 | -5.16281 | 105.36359 | 28907 ft | 460 kts | 131° |
| 2026-05-06 10:07 | -5.18443 | 105.38684 | 28310 ft | 456 kts | 131° |
| 2026-05-06 10:08 | -5.20596 | 105.41001 | 27746 ft | 451 kts | 131° |
| 2026-05-06 10:08 | -5.22715 | 105.43282 | 27206 ft | 447 kts | 131° |
| 2026-05-06 10:08 | -5.24822 | 105.45549 | 26675 ft | 442 kts | 131° |
| 2026-05-06 10:08 | -5.26928 | 105.47817 | 26155 ft | 437 kts | 131° |
| 2026-05-06 10:09 | -5.28989 | 105.50037 | 25634 ft | 433 kts | 131° |
| 2026-05-06 10:09 | -5.31008 | 105.52209 | 25131 ft | 429 kts | 131° |
| 2026-05-06 10:09 | -5.33033 | 105.54392 | 24603 ft | 425 kts | 131° |
| 2026-05-06 10:09 | -5.35065 | 105.56580 | 24058 ft | 423 kts | 131° |
| 2026-05-06 10:10 | -5.37047 | 105.58715 | 23534 ft | 419 kts | 131° |
| 2026-05-06 10:10 | -5.39022 | 105.60842 | 23004 ft | 417 kts | 130° |
| 2026-05-06 10:10 | -5.40995 | 105.62968 | 22477 ft | 414 kts | 130° |
| 2026-05-06 10:10 | -5.42947 | 105.65071 | 21971 ft | 411 kts | 130° |
| 2026-05-06 10:11 | -5.44907 | 105.67185 | 21459 ft | 409 kts | 130° |
| 2026-05-06 10:11 | -5.46825 | 105.69256 | 20942 ft | 407 kts | 130° |
| 2026-05-06 10:11 | -5.48767 | 105.71350 | 20416 ft | 405 kts | 130° |
| 2026-05-06 10:11 | -5.50657 | 105.73389 | 19895 ft | 403 kts | 130° |
| 2026-05-06 10:12 | -5.52572 | 105.75456 | 19360 ft | 400 kts | 130° |
| 2026-05-06 10:12 | -5.54449 | 105.77480 | 18830 ft | 398 kts | 131° |
| 2026-05-06 10:12 | -5.56332 | 105.79511 | 18283 ft | 396 kts | 131° |
| 2026-05-06 10:12 | -5.58222 | 105.81550 | 17739 ft | 394 kts | 131° |
| 2026-05-06 10:13 | -5.60076 | 105.83548 | 17206 ft | 392 kts | 131° |
| 2026-05-06 10:13 | -5.61927 | 105.85544 | 16680 ft | 389 kts | 131° |
| 2026-05-06 10:13 | -5.63752 | 105.87513 | 16174 ft | 385 kts | 131° |
| 2026-05-06 10:13 | -5.65575 | 105.89480 | 15670 ft | 382 kts | 131° |
| 2026-05-06 10:14 | -5.67372 | 105.91419 | 15158 ft | 379 kts | 131° |
| 2026-05-06 10:14 | -5.69152 | 105.93340 | 14657 ft | 375 kts | 131° |
| 2026-05-06 10:14 | -5.70929 | 105.95259 | 14140 ft | 372 kts | 131° |
| 2026-05-06 10:14 | -5.72673 | 105.97141 | 13646 ft | 369 kts | 131° |
| 2026-05-06 10:15 | -5.74424 | 105.99033 | 13142 ft | 366 kts | 131° |
| 2026-05-06 10:15 | -5.76141 | 106.00887 | 12630 ft | 363 kts | 131° |
| 2026-05-06 10:15 | -5.77853 | 106.02733 | 12124 ft | 360 kts | 131° |
| 2026-05-06 10:15 | -5.79557 | 106.04572 | 11608 ft | 358 kts | 131° |
| 2026-05-06 10:16 | -5.81256 | 106.06405 | 11092 ft | 355 kts | 131° |
| 2026-05-06 10:16 | -5.82901 | 106.08181 | 10738 ft | 347 kts | 131° |
| 2026-05-06 10:16 | -5.84517 | 106.09924 | 10542 ft | 334 kts | 131° |
| 2026-05-06 10:16 | -5.86088 | 106.11620 | 10386 ft | 321 kts | 131° |
| 2026-05-06 10:17 | -5.87578 | 106.13230 | 10233 ft | 308 kts | 131° |
| 2026-05-06 10:17 | -5.88997 | 106.14761 | 10094 ft | 297 kts | 131° |
| 2026-05-06 10:17 | -5.90399 | 106.16277 | 9826 ft | 291 kts | 131° |
| 2026-05-06 10:17 | -5.91773 | 106.17763 | 9446 ft | 289 kts | 131° |
| 2026-05-06 10:18 | -5.93126 | 106.19227 | 9085 ft | 287 kts | 131° |
| 2026-05-06 10:18 | -5.94494 | 106.20706 | 8727 ft | 285 kts | 131° |
| 2026-05-06 10:18 | -5.95833 | 106.22154 | 8374 ft | 283 kts | 131° |
| 2026-05-06 10:18 | -5.97160 | 106.23589 | 8022 ft | 281 kts | 131° |
| 2026-05-06 10:19 | -5.98489 | 106.25026 | 7671 ft | 279 kts | 130° |
| 2026-05-06 10:19 | -5.99811 | 106.26454 | 7381 ft | 274 kts | 131° |
| 2026-05-06 10:19 | -6.01082 | 106.27826 | 7289 ft | 261 kts | 130° |
| 2026-05-06 10:19 | -6.02290 | 106.29130 | 7198 ft | 249 kts | 130° |
| 2026-05-06 10:20 | -6.03446 | 106.30377 | 7104 ft | 238 kts | 131° |
| 2026-05-06 10:20 | -6.04754 | 106.31354 | 6988 ft | 233 kts | 155° |
| 2026-05-06 10:20 | -6.06352 | 106.31770 | 7015 ft | 238 kts | 167° |
| 2026-05-06 10:20 | -6.07996 | 106.32047 | 7011 ft | 239 kts | 168° |
| 2026-05-06 10:21 | -6.09653 | 106.32317 | 6752 ft | 241 kts | 167° |
| 2026-05-06 10:21 | -6.11307 | 106.32593 | 6443 ft | 240 kts | 167° |
| 2026-05-06 10:21 | -6.12969 | 106.32878 | 6147 ft | 238 kts | 167° |
| 2026-05-06 10:21 | -6.14598 | 106.33163 | 5863 ft | 237 kts | 167° |
| 2026-05-06 10:22 | -6.16217 | 106.33447 | 5581 ft | 235 kts | 167° |
| 2026-05-06 10:22 | -6.17819 | 106.33730 | 5306 ft | 233 kts | 167° |
| 2026-05-06 10:22 | -6.19434 | 106.34016 | 5070 ft | 229 kts | 165° |
| 2026-05-06 10:22 | -6.20808 | 106.34630 | 5009 ft | 211 kts | 131° |
| 2026-05-06 10:23 | -6.21617 | 106.35817 | 5114 ft | 204 kts | 117° |
| 2026-05-06 10:23 | -6.22330 | 106.37040 | 4968 ft | 201 kts | 118° |
| 2026-05-06 10:23 | -6.23050 | 106.38242 | 4623 ft | 200 kts | 119° |
| 2026-05-06 10:23 | -6.23672 | 106.39490 | 4219 ft | 200 kts | 101° |
| 2026-05-06 10:24 | -6.23585 | 106.40836 | 4042 ft | 192 kts | 75° |
| 2026-05-06 10:24 | -6.23166 | 106.42078 | 4035 ft | 187 kts | 69° |
| 2026-05-06 10:24 | -6.22677 | 106.43295 | 4038 ft | 186 kts | 68° |
| 2026-05-06 10:24 | -6.22185 | 106.44494 | 3944 ft | 186 kts | 68° |
| 2026-05-06 10:25 | -6.21697 | 106.45692 | 3717 ft | 185 kts | 68° |
| 2026-05-06 10:25 | -6.21211 | 106.46899 | 3483 ft | 184 kts | 69° |
| 2026-05-06 10:25 | -6.20739 | 106.48079 | 3249 ft | 184 kts | 69° |
| 2026-05-06 10:25 | -6.20263 | 106.49276 | 3011 ft | 184 kts | 69° |
| 2026-05-06 10:26 | -6.19792 | 106.50462 | 2778 ft | 183 kts | 69° |
| 2026-05-06 10:26 | -6.19318 | 106.51654 | 2544 ft | 180 kts | 68° |
| 2026-05-06 10:26 | -6.18862 | 106.52801 | 2311 ft | 174 kts | 68° |
| 2026-05-06 10:26 | -6.18417 | 106.53921 | 2106 ft | 165 kts | 68° |
| 2026-05-06 10:27 | -6.18020 | 106.54919 | 1907 ft | 149 kts | 68° |
| 2026-05-06 10:27 | -6.17635 | 106.55886 | 1720 ft | 148 kts | 68° |
| 2026-05-06 10:27 | -6.17254 | 106.56843 | 1537 ft | 147 kts | 68° |
| 2026-05-06 10:27 | -6.16875 | 106.57795 | 1353 ft | 147 kts | 68° |
| 2026-05-06 10:28 | -6.16496 | 106.58747 | 1155 ft | 139 kts | 67° |
| 2026-05-06 10:28 | -6.16158 | 106.59597 | 967 ft | 128 kts | 67° |
| 2026-05-06 10:28 | -6.15824 | 106.60433 | 819 ft | 128 kts | 67° |
| 2026-05-06 10:28 | -6.15494 | 106.61260 | 668 ft | 128 kts | 66° |
| 2026-05-06 10:29 | -6.15163 | 106.62092 | 510 ft | 128 kts | 66° |
| 2026-05-06 10:29 | -6.14828 | 106.62933 | 345 ft | 128 kts | 66° |
| 2026-05-06 10:29 | -6.14500 | 106.63757 | 182 ft | 128 kts | 66° |
| 2026-05-06 10:29 | -6.14169 | 106.64587 | 40 ft | 123 kts | 66° |
| 2026-05-06 10:30 | -6.13901 | 106.65247 | 38 ft | 76 kts | 68° |
| 2026-05-06 10:30 | -6.13765 | 106.65593 | 38 ft | 38 kts | 68° |
| 2026-05-06 10:30 | -6.13669 | 106.65824 | 38 ft | 33 kts | 66° |
| 2026-05-06 10:30 | -6.13586 | 106.66028 | 38 ft | 30 kts | 66° |
| 2026-05-06 10:31 | -6.13489 | 106.66203 | 38 ft | 27 kts | 47° |
| 2026-05-06 10:31 | -6.13341 | 106.66302 | 36 ft | 22 kts | 352° |
| 2026-05-06 10:31 | -6.13222 | 106.66233 | 35 ft | 18 kts | 272° |
| 2026-05-06 10:31 | -6.13263 | 106.66116 | 38 ft | 16 kts | 248° |
| 2026-05-06 10:32 | -6.13306 | 106.66003 | 38 ft | 18 kts | 249° |
| 2026-05-06 10:32 | -6.13362 | 106.65859 | 41 ft | 26 kts | 249° |
| 2026-05-06 10:32 | -6.13431 | 106.65688 | 41 ft | 25 kts | 246° |
| 2026-05-06 10:32 | -6.13497 | 106.65523 | 41 ft | 25 kts | 249° |
| 2026-05-06 10:33 | -6.13559 | 106.65371 | 40 ft | 22 kts | 247° |
| 2026-05-06 10:33 | -6.13544 | 106.65282 | 40 ft | 14 kts | 335° |
| 2026-05-06 10:33 | -6.13453 | 106.65248 | 42 ft | 13 kts | 340° |
| 2026-05-06 10:33 | -6.13366 | 106.65216 | 44 ft | 13 kts | 337° |
| 2026-05-06 10:34 | -6.13293 | 106.65151 | 44 ft | 15 kts | 307° |
| 2026-05-06 10:34 | -6.13208 | 106.65083 | 44 ft | 16 kts | 345° |
| 2026-05-06 10:34 | -6.13118 | 106.65082 | 44 ft | 8 kts | 8° |
| 2026-05-06 10:34 | -6.13082 | 106.65104 | 44 ft | 6 kts | 68° |
| 2026-05-06 10:35 | -6.13086 | 106.65133 | 44 ft | 3 kts | 92° |
| 2026-05-06 10:35 | -6.13087 | 106.65144 | 44 ft | 0 kts | 97° |